Time;durP1;ratioP1;P1;durP2;ratioP2;P2;SDS_P1;SDS_P2;PMS_P1;PMS_P2;Temp;Humidity;BMP_temperature;BMP_pressure;BME280_temperature;BME280_humidity;BME280_pressure;Samples;Min_cycle;Max_cycle;Signal;HPM_P1;HPM_P2
2022/03/16 00:00:32;;;;;;;28.60;13.10;;;;;;;7.51;34.74;99520.84;106214;1274;99307;-72
2022/03/16 00:03:09;;;;;;;29.80;14.00;;;;;;;7.43;34.94;99513.45;106190;1273;99320;-71
2022/03/16 00:05:37;;;;;;;29.60;14.80;;;;;;;7.35;34.99;99510.70;106197;1274;112453;-71
2022/03/16 00:08:05;;;;;;;28.50;13.90;;;;;;;7.27;35.16;99504.91;106108;1274;99341;-70
2022/03/16 00:10:34;;;;;;;33.30;15.90;;;;;;;7.21;35.22;99493.03;106232;1273;107783;-69
2022/03/16 00:13:02;;;;;;;37.40;19.40;;;;;;;7.17;35.47;99499.23;106158;1273;99008;-71
2022/03/16 00:15:30;;;;;;;33.60;16.20;;;;;;;7.14;35.30;99496.77;106147;1273;99277;-72
2022/03/16 00:17:58;;;;;;;30.60;15.00;;;;;;;7.13;35.54;99492.01;106145;1274;112800;-74
2022/03/16 00:20:26;;;;;;;30.60;14.50;;;;;;;7.14;35.31;99488.64;106210;1271;99256;-72
2022/03/16 00:22:53;;;;;;;33.30;15.70;;;;;;;7.15;35.23;99485.25;106060;1274;107682;-71
2022/03/16 00:25:23;;;;;;;31.00;15.40;;;;;;;7.16;35.25;99482.39;106113;1273;99319;-72
2022/03/16 00:27:52;;;;;;;30.50;14.70;;;;;;;7.16;35.17;99481.15;106101;1274;99248;-72
2022/03/16 00:30:20;;;;;;;28.70;13.50;;;;;;;7.17;35.02;99475.78;106170;1274;112733;-72
2022/03/16 00:32:48;;;;;;;33.40;14.20;;;;;;;7.17;35.35;99466.10;106136;1273;97609;-71
2022/03/16 00:35:16;;;;;;;29.80;14.60;;;;;;;7.17;35.46;99464.89;106159;1273;107765;-72
2022/03/16 00:37:46;;;;;;;29.30;14.50;;;;;;;7.17;35.48;99458.88;106198;1273;96627;-71
2022/03/16 00:40:15;;;;;;;27.40;13.70;;;;;;;7.18;35.42;99452.66;106099;1274;99199;-71
2022/03/16 00:42:43;;;;;;;26.00;13.50;;;;;;;7.22;35.40;99450.33;106129;1274;112811;-72
2022/03/16 00:45:11;;;;;;;25.90;13.10;;;;;;;7.22;35.66;99449.98;106076;1273;99083;-71
2022/03/16 00:47:39;;;;;;;25.70;12.70;;;;;;;7.24;35.55;99453.05;106160;1273;107698;-72
2022/03/16 00:50:07;;;;;;;28.40;13.40;;;;;;;7.25;35.33;99452.27;106160;1273;99370;-74
2022/03/16 00:52:36;;;;;;;26.80;12.50;;;;;;;7.25;35.53;99446.45;106180;1273;99319;-71
2022/03/16 00:55:04;;;;;;;25.80;12.50;;;;;;;7.22;35.59;99446.77;106140;1273;112406;-70
2022/03/16 00:57:32;;;;;;;28.10;13.10;;;;;;;7.19;35.69;99442.17;106178;1274;99341;-70
2022/03/16 01:00:00;;;;;;;32.70;15.00;;;;;;;7.17;35.77;99442.44;106124;1275;107794;-70
2022/03/16 01:02:28;;;;;;;27.60;13.10;;;;;;;7.14;35.77;99435.88;106143;1273;99281;-72
2022/03/16 01:04:57;;;;;;;29.50;15.10;;;;;;;7.14;35.92;99436.06;106162;1273;99299;-71
2022/03/16 01:07:27;;;;;;;26.10;12.80;;;;;;;7.13;35.83;99438.07;106187;1273;112773;-71
2022/03/16 01:09:54;;;;;;;28.50;13.50;;;;;;;7.11;36.01;99432.34;106121;1274;97279;-71
2022/03/16 01:12:24;;;;;;;26.10;12.80;;;;;;;7.07;35.97;99430.09;106158;1273;107729;-71
2022/03/16 01:14:52;;;;;;;26.20;13.90;;;;;;;7.05;36.02;99430.94;106279;1274;99329;-70
2022/03/16 01:17:19;;;;;;;27.50;12.90;;;;;;;7.01;36.13;99427.42;106275;1273;99199;-71
2022/03/16 01:19:48;;;;;;;25.60;11.90;;;;;;;6.98;35.96;99427.59;106252;1273;112732;-70
2022/03/16 01:22:18;;;;;;;28.80;14.10;;;;;;;6.96;36.11;99427.83;106184;1273;99948;-72
2022/03/16 01:24:47;;;;;;;31.40;15.00;;;;;;;6.95;36.19;99426.15;106051;1274;107743;-71
2022/03/16 01:27:16;;;;;;;29.70;13.70;;;;;;;6.91;36.09;99421.23;106207;1274;99217;-71
2022/03/16 01:29:48;;;;;;;29.70;14.00;;;;;;;6.89;35.94;99423.28;106143;1274;99252;-71
2022/03/16 01:32:16;;;;;;;29.40;14.50;;;;;;;6.88;36.12;99423.34;106114;1274;111745;-72
2022/03/16 01:34:44;;;;;;;28.40;13.60;;;;;;;6.87;35.99;99424.81;106144;1274;96546;-71
2022/03/16 01:37:12;;;;;;;31.70;14.40;;;;;;;6.85;36.06;99417.31;106152;1273;107522;-70
2022/03/16 01:39:40;;;;;;;31.30;15.40;;;;;;;6.82;36.15;99413.58;106102;1273;98420;-70
2022/03/16 01:42:08;;;;;;;29.30;13.80;;;;;;;6.82;36.18;99412.55;106168;1273;99253;-70
2022/03/16 01:44:52;;;;;;;30.40;14.40;;;;;;;6.79;36.22;99406.36;106210;1273;112347;-71
2022/03/16 01:47:22;;;;;;;30.50;13.90;;;;;;;6.75;36.23;99403.17;106143;1275;99713;-70
2022/03/16 01:49:55;;;;;;;27.40;12.60;;;;;;;6.72;36.37;99404.22;106133;1274;107895;-71
2022/03/16 01:52:27;;;;;;;27.50;13.80;;;;;;;6.71;36.40;99403.42;106224;1273;97074;-72
2022/03/16 01:54:57;;;;;;;25.50;13.20;;;;;;;6.68;36.37;99400.16;106047;1276;96646;-71
2022/03/16 01:57:25;;;;;;;26.40;13.00;;;;;;;6.69;36.38;99401.06;106230;1273;112659;-72
2022/03/16 01:59:53;;;;;;;27.00;13.30;;;;;;;6.69;36.20;99404.04;106271;1273;96561;-72
2022/03/16 02:02:21;;;;;;;26.90;12.90;;;;;;;6.69;36.40;99404.18;106179;1273;105614;-72
2022/03/16 02:04:50;;;;;;;27.30;13.80;;;;;;;6.69;36.33;99406.31;106139;1274;99329;-71
2022/03/16 02:07:18;;;;;;;29.10;13.40;;;;;;;6.69;36.27;99403.50;106161;1274;99211;-71
2022/03/16 02:09:48;;;;;;;27.10;13.40;;;;;;;6.69;36.26;99403.83;106162;1274;111776;-71
2022/03/16 02:12:16;;;;;;;29.40;13.50;;;;;;;6.71;36.30;99405.52;106200;1274;98341;-71
2022/03/16 02:14:44;;;;;;;27.90;12.90;;;;;;;6.71;36.49;99404.64;106127;1274;107812;-72
2022/03/16 02:17:12;;;;;;;27.40;13.10;;;;;;;6.72;36.34;99403.33;106141;1274;99373;-72
2022/03/16 02:19:42;;;;;;;27.60;13.20;;;;;;;6.73;36.47;99405.95;106201;1273;99242;-72
2022/03/16 02:22:15;;;;;;;26.20;13.50;;;;;;;6.75;36.49;99409.04;106168;1273;112815;-74
2022/03/16 02:24:43;;;;;;;29.50;13.00;;;;;;;6.77;36.40;99409.27;106198;1273;99232;-75
2022/03/16 02:27:11;;;;;;;27.20;14.20;;;;;;;6.80;36.54;99409.66;106155;1274;107636;-75
2022/03/16 02:29:41;;;;;;;28.90;14.00;;;;;;;6.82;36.40;99407.60;106148;1275;96606;-73
2022/03/16 02:32:09;;;;;;;28.80;14.90;;;;;;;6.85;36.53;99408.34;106175;1275;99205;-70
2022/03/16 02:34:38;;;;;;;30.50;14.50;;;;;;;6.87;36.45;99407.70;106219;1273;112655;-69
2022/03/16 02:37:06;;;;;;;25.50;12.80;;;;;;;6.88;36.49;99409.94;106181;1273;99250;-70
2022/03/16 02:39:34;;;;;;;28.40;13.70;;;;;;;6.86;36.45;99409.16;106245;1274;107732;-68
2022/03/16 02:42:05;;;;;;;26.60;13.10;;;;;;;6.84;36.40;99406.42;106026;1273;99398;-70
2022/03/16 02:44:34;;;;;;;27.40;13.60;;;;;;;6.82;36.56;99406.72;106200;1273;99326;-69
2022/03/16 02:47:08;;;;;;;26.20;12.30;;;;;;;6.78;36.43;99403.03;106149;1274;112422;-70
2022/03/16 02:49:36;;;;;;;27.60;12.70;;;;;;;6.75;36.52;99406.35;106078;1274;98979;-70
2022/03/16 02:52:09;;;;;;;27.70;13.10;;;;;;;6.72;36.43;99407.56;106058;1273;107429;-70
2022/03/16 02:54:37;;;;;;;27.20;12.30;;;;;;;6.70;36.52;99406.42;106121;1274;99204;-70
2022/03/16 02:57:07;;;;;;;26.40;13.10;;;;;;;6.68;36.43;99404.94;106207;1273;97921;-71
2022/03/16 02:59:37;;;;;;;25.70;13.10;;;;;;;6.67;36.45;99404.27;106087;1275;111276;-70
2022/03/16 03:02:06;;;;;;;30.30;12.50;;;;;;;6.68;36.52;99402.84;106114;1275;99293;-73
2022/03/16 03:04:35;;;;;;;27.60;13.00;;;;;;;6.70;36.62;99400.63;106223;1274;107738;-71
2022/03/16 03:07:05;;;;;;;24.60;12.60;;;;;;;6.72;36.69;99397.90;106190;1273;99333;-70
2022/03/16 03:09:33;;;;;;;24.20;11.90;;;;;;;6.74;36.54;99398.32;106138;1274;99301;-72
2022/03/16 03:12:03;;;;;;;27.80;13.40;;;;;;;6.75;36.67;99396.67;106129;1275;112720;-75
2022/03/16 03:14:32;;;;;;;26.30;13.20;;;;;;;6.74;36.48;99402.33;106236;1273;99233;-76
2022/03/16 03:17:03;;;;;;;25.60;12.60;;;;;;;6.76;36.59;99404.04;106146;1274;107704;-73
2022/03/16 03:19:33;;;;;;;26.30;12.20;;;;;;;6.75;36.56;99406.23;106140;1275;99295;-72
2022/03/16 03:22:04;;;;;;;25.30;12.10;;;;;;;6.75;36.58;99406.73;106249;1273;99906;-73
2022/03/16 03:24:33;;;;;;;26.40;13.20;;;;;;;6.75;36.57;99411.30;106134;1275;112668;-71
2022/03/16 03:27:02;;;;;;;28.00;13.10;;;;;;;6.75;36.81;99410.08;106134;1274;99235;-71
2022/03/16 03:29:30;;;;;;;26.90;12.30;;;;;;;6.75;36.57;99409.55;106148;1275;107765;-70
2022/03/16 03:31:58;;;;;;;27.90;13.40;;;;;;;6.75;36.67;99405.81;106186;1273;99286;-71
2022/03/16 03:34:26;;;;;;;28.30;13.00;;;;;;;6.75;36.75;99402.63;106051;1274;99246;-71
2022/03/16 03:36:55;;;;;;;25.80;11.80;;;;;;;6.75;36.82;99402.15;105976;1273;188537;-71
2022/03/16 03:39:23;;;;;;;25.60;12.30;;;;;;;6.75;36.59;99405.51;106087;1275;96650;-69
2022/03/16 03:41:51;;;;;;;25.60;12.80;;;;;;;6.74;36.65;99405.73;106027;1274;106375;-71
2022/03/16 03:44:19;;;;;;;25.30;11.80;;;;;;;6.72;36.73;99407.73;106079;1274;96705;-71
2022/03/16 03:46:47;;;;;;;28.60;12.00;;;;;;;6.73;36.66;99403.11;106130;1274;99325;-72
2022/03/16 03:49:16;;;;;;;25.50;12.40;;;;;;;6.73;36.78;99403.64;106125;1275;112229;-71
2022/03/16 03:51:44;;;;;;;26.40;12.80;;;;;;;6.74;37.06;99400.27;106123;1275;99244;-71
2022/03/16 03:54:12;;;;;;;27.40;12.20;;;;;;;6.74;36.81;99401.85;106083;1274;107786;-69
2022/03/16 03:56:40;;;;;;;27.80;13.60;;;;;;;6.74;36.95;99398.34;106060;1274;99286;-71
2022/03/16 03:59:08;;;;;;;26.50;13.10;;;;;;;6.74;36.70;99403.10;106124;1274;99255;-71
2022/03/16 04:01:36;;;;;;;27.60;12.80;;;;;;;6.74;36.94;99406.95;106115;1274;112491;-71
2022/03/16 04:04:04;;;;;;;29.00;12.60;;;;;;;6.73;36.78;99403.98;106243;1273;96719;-74
2022/03/16 04:06:31;;;;;;;29.50;14.10;;;;;;;6.72;36.93;99403.16;106237;1273;107542;-73
2022/03/16 04:08:59;;;;;;;27.30;12.80;;;;;;;6.71;36.75;99407.09;106081;1274;99122;-73
2022/03/16 04:11:27;;;;;;;29.00;12.80;;;;;;;6.71;36.69;99398.67;106161;1274;99214;-71
2022/03/16 04:13:55;;;;;;;25.90;12.50;;;;;;;6.70;36.74;99403.64;106094;1274;112634;-71
2022/03/16 04:16:23;;;;;;;26.00;12.60;;;;;;;6.70;36.99;99401.16;106052;1274;100764;-72
2022/03/16 04:18:54;;;;;;;27.40;12.40;;;;;;;6.69;36.72;99403.70;106040;1274;107747;-72
2022/03/16 04:21:22;;;;;;;27.80;13.10;;;;;;;6.69;36.94;99406.14;106227;1273;99333;-71
2022/03/16 04:23:50;;;;;;;27.30;13.40;;;;;;;6.68;36.76;99402.84;106133;1273;96530;-71
2022/03/16 04:26:18;;;;;;;25.20;12.20;;;;;;;6.68;36.98;99403.20;106202;1273;112891;-71
2022/03/16 04:28:46;;;;;;;32.60;13.50;;;;;;;6.68;36.96;99404.61;106164;1273;99246;-73
2022/03/16 04:31:15;;;;;;;28.40;13.30;;;;;;;6.68;36.90;99404.60;106138;1273;107700;-73
2022/03/16 04:33:43;;;;;;;31.00;14.70;;;;;;;6.68;36.74;99405.85;106049;1273;96709;-72
2022/03/16 04:36:12;;;;;;;39.60;18.70;;;;;;;6.68;36.89;99404.39;106292;1273;96636;-71
2022/03/16 04:38:40;;;;;;;43.20;21.10;;;;;;;6.64;37.03;99405.86;106132;1273;113258;-70
2022/03/16 04:41:10;;;;;;;41.20;22.40;;;;;;;6.60;36.93;99403.27;106160;1273;96537;-72
2022/03/16 04:43:38;;;;;;;47.80;25.00;;;;;;;6.57;36.87;99399.86;106106;1273;107816;-73
2022/03/16 04:46:05;;;;;;;48.60;24.80;;;;;;;6.56;36.91;99400.45;106129;1273;99290;-73
2022/03/16 04:48:35;;;;;;;45.30;23.80;;;;;;;6.54;37.05;99403.71;106068;1273;99252;-70
2022/03/16 04:51:05;;;;;;;44.90;24.40;;;;;;;6.53;37.02;99402.34;106265;1273;112502;-71
2022/03/16 04:53:33;;;;;;;47.20;24.20;;;;;;;6.53;37.11;99402.37;106039;1275;97325;-72
2022/03/16 04:56:01;;;;;;;49.20;25.30;;;;;;;6.52;37.12;99402.60;106065;1273;107827;-72
2022/03/16 04:58:30;;;;;;;40.10;22.00;;;;;;;6.51;37.15;99404.77;106105;1273;99095;-71
2022/03/16 05:00:58;;;;;;;42.40;21.60;;;;;;;6.49;37.22;99406.45;107923;1273;97328;-71
2022/03/16 05:03:26;;;;;;;44.70;24.60;;;;;;;6.48;37.25;99412.84;106783;1273;112685;-73
2022/03/16 05:05:55;;;;;;;44.40;23.50;;;;;;;6.48;37.20;99412.33;106072;1276;97705;-73
2022/03/16 05:08:23;;;;;;;48.10;25.50;;;;;;;6.46;37.12;99417.52;106143;1274;107634;-72
2022/03/16 05:10:51;;;;;;;51.00;25.80;;;;;;;6.44;37.14;99423.82;106159;1274;99804;-72
2022/03/16 05:13:20;;;;;;;45.50;25.30;;;;;;;6.42;37.16;99424.07;106169;1274;99306;-68
2022/03/16 05:15:49;;;;;;;52.10;26.00;;;;;;;6.39;37.12;99427.34;106218;1273;112732;-73
2022/03/16 05:18:17;;;;;;;50.90;26.20;;;;;;;6.36;37.16;99430.17;106224;1273;99332;-71
2022/03/16 05:20:45;;;;;;;49.30;26.70;;;;;;;6.30;37.32;99431.20;106111;1273;107724;-71
2022/03/16 05:23:13;;;;;;;50.80;28.50;;;;;;;6.22;37.32;99430.48;106124;1273;99257;-71
2022/03/16 05:25:41;;;;;;;56.90;30.10;;;;;;;6.18;37.44;99434.20;106164;1274;99293;-70
2022/03/16 05:28:12;;;;;;;44.20;22.90;;;;;;;6.14;37.28;99434.39;106176;1273;113011;-70
2022/03/16 05:30:40;;;;;;;31.50;15.60;;;;;;;6.14;37.55;99434.95;106138;1274;97092;-70
2022/03/16 05:33:09;;;;;;;29.20;15.40;;;;;;;6.14;37.71;99434.41;106125;1273;107960;-68
2022/03/16 05:35:39;;;;;;;27.70;13.40;;;;;;;6.15;37.85;99435.20;106165;1274;99386;-70
2022/03/16 05:38:13;;;;;;;27.00;13.60;;;;;;;6.19;37.98;99435.56;106189;1273;99354;-72
2022/03/16 05:40:43;;;;;;;26.80;14.00;;;;;;;6.21;37.78;99436.36;106127;1275;112805;-71
2022/03/16 05:43:12;;;;;;;31.70;15.90;;;;;;;6.22;37.95;99434.52;106186;1273;99342;-71
2022/03/16 05:45:41;;;;;;;31.10;15.40;;;;;;;6.24;37.87;99437.27;106216;1274;107743;-72
2022/03/16 05:48:09;;;;;;;29.80;15.10;;;;;;;6.25;37.79;99437.40;106123;1275;96544;-74
2022/03/16 05:50:40;;;;;;;33.20;14.70;;;;;;;6.27;37.67;99435.88;106063;1273;96627;-72
2022/03/16 05:53:08;;;;;;;31.40;14.90;;;;;;;6.30;37.75;99441.03;106088;1273;111548;-72
2022/03/16 05:55:36;;;;;;;32.40;15.40;;;;;;;6.32;37.92;99441.78;106146;1275;99221;-73
2022/03/16 05:58:04;;;;;;;34.00;15.90;;;;;;;6.32;37.77;99446.23;105987;1274;107717;-74
2022/03/16 06:00:34;;;;;;;29.20;14.60;;;;;;;6.33;37.93;99448.29;106156;1274;98577;-74
2022/03/16 06:03:03;;;;;;;29.90;15.30;;;;;;;6.33;37.90;99453.35;106171;1274;99926;-73
2022/03/16 06:05:31;;;;;;;31.70;15.70;;;;;;;6.32;38.14;99457.98;106095;1275;112775;-73
2022/03/16 06:07:59;;;;;;;28.30;14.70;;;;;;;6.35;38.13;99456.96;106219;1273;99187;-73
2022/03/16 06:10:29;;;;;;;33.20;16.30;;;;;;;6.38;38.20;99455.77;106142;1274;107799;-73
2022/03/16 06:13:00;;;;;;;31.80;15.80;;;;;;;6.40;38.23;99453.57;106158;1274;97862;-72
2022/03/16 06:15:37;;;;;;;37.90;17.70;;;;;;;6.43;38.62;99460.16;106142;1274;96554;-72
2022/03/16 06:18:08;;;;;;;33.50;16.60;;;;;;;6.41;38.48;99460.74;106218;1273;112722;-71
2022/03/16 06:20:38;;;;;;;34.40;18.40;;;;;;;6.42;38.64;99468.45;106161;1273;99273;-73
2022/03/16 06:23:08;;;;;;;31.40;16.40;;;;;;;6.41;38.88;99468.67;106114;1274;107653;-74
2022/03/16 06:25:41;;;;;;;29.40;15.10;;;;;;;6.41;38.98;99473.07;106153;1274;99240;-75
2022/03/16 06:28:09;;;;;;;34.10;18.00;;;;;;;6.42;39.23;99472.48;106079;1274;99184;-73
2022/03/16 06:30:37;;;;;;;33.80;16.40;;;;;;;6.39;38.90;99471.95;106024;1275;111746;-73
2022/03/16 06:33:06;;;;;;;42.50;17.70;;;;;;;6.39;39.00;99469.84;106094;1273;99087;-73
2022/03/16 06:35:34;;;;;;;36.90;17.40;;;;;;;6.43;38.78;99473.36;106136;1273;107740;-75
2022/03/16 06:38:02;;;;;;;35.80;17.40;;;;;;;6.45;38.72;99474.63;106167;1273;98360;-74
2022/03/16 06:40:30;;;;;;;39.40;18.60;;;;;;;6.50;38.87;99474.79;106102;1275;99207;-72
2022/03/16 06:42:59;;;;;;;37.80;17.90;;;;;;;6.54;38.85;99478.98;106197;1273;111566;-72
2022/03/16 06:45:30;;;;;;;33.70;17.30;;;;;;;6.57;38.77;99477.39;106238;1273;99289;-71
2022/03/16 06:48:00;;;;;;;33.40;17.40;;;;;;;6.61;38.79;99481.27;106229;1273;107736;-72
2022/03/16 06:50:30;;;;;;;35.20;18.40;;;;;;;6.62;38.86;99481.73;106222;1273;99321;-72
2022/03/16 06:52:59;;;;;;;38.40;18.20;;;;;;;6.64;38.83;99482.17;106183;1273;99319;-71
2022/03/16 06:55:27;;;;;;;38.30;18.80;;;;;;;6.65;38.92;99482.52;106084;1273;112418;-73
2022/03/16 06:57:57;;;;;;;34.80;17.20;;;;;;;6.66;39.05;99483.99;106146;1274;99281;-71
2022/03/16 07:00:25;;;;;;;35.20;18.30;;;;;;;6.69;39.13;99485.45;106155;1274;107686;-71
2022/03/16 07:03:01;;;;;;;35.10;17.80;;;;;;;6.71;39.05;99485.19;106219;1273;99238;-71
2022/03/16 07:05:34;;;;;;;36.70;18.20;;;;;;;6.70;39.18;99491.56;106202;1274;97768;-70
2022/03/16 07:08:07;;;;;;;43.10;20.00;;;;;;;6.69;39.47;99493.36;106230;1274;111639;-71
2022/03/16 07:10:39;;;;;;;39.70;18.80;;;;;;;6.70;39.42;99493.85;106205;1273;99256;-71
2022/03/16 07:13:12;;;;;;;37.00;18.60;;;;;;;6.67;39.76;99498.23;106100;1274;107815;-70
2022/03/16 07:15:45;;;;;;;33.80;18.40;;;;;;;6.64;39.70;99501.58;106128;1273;99259;-70
2022/03/16 07:18:14;;;;;;;34.70;19.00;;;;;;;6.65;39.51;99502.73;106104;1276;99315;-70
2022/03/16 07:20:41;;;;;;;35.80;17.60;;;;;;;6.70;39.57;99508.84;106152;1275;112732;-71
2022/03/16 07:23:14;;;;;;;36.40;19.30;;;;;;;6.75;39.46;99506.64;106070;1274;99189;-72
2022/03/16 07:25:46;;;;;;;35.60;18.20;;;;;;;6.80;39.48;99506.75;106153;1274;107761;-71
2022/03/16 07:28:16;;;;;;;35.10;18.60;;;;;;;6.83;39.59;99506.08;106117;1274;99298;-73
2022/03/16 07:30:45;;;;;;;36.40;17.80;;;;;;;6.87;39.63;99505.38;106155;1274;99243;-73
2022/03/16 07:33:15;;;;;;;38.30;18.60;;;;;;;6.90;39.80;99510.67;106164;1274;112782;-70
2022/03/16 07:35:45;;;;;;;32.90;18.90;;;;;;;6.88;39.74;99507.95;106227;1274;99250;-70
2022/03/16 07:38:14;;;;;;;33.30;18.40;;;;;;;6.88;39.88;99509.73;106154;1275;107807;-70
2022/03/16 07:40:42;;;;;;;34.60;18.10;;;;;;;6.89;40.06;99511.98;105979;1274;99316;-71
2022/03/16 07:43:11;;;;;;;37.00;18.80;;;;;;;6.87;40.01;99513.12;106022;1274;99329;-71
2022/03/16 07:45:40;;;;;;;33.50;17.40;;;;;;;6.91;40.04;99516.11;106024;1274;112875;-70
2022/03/16 07:48:09;;;;;;;32.20;18.40;;;;;;;6.96;39.99;99511.57;106152;1274;99294;-70
2022/03/16 07:50:38;;;;;;;33.60;18.80;;;;;;;7.02;40.02;99515.02;105952;1274;107538;-71
2022/03/16 07:53:09;;;;;;;36.70;18.00;;;;;;;7.08;39.95;99516.66;106134;1274;99195;-70
2022/03/16 07:55:37;;;;;;;34.70;19.70;;;;;;;7.13;39.71;99517.61;106114;1274;99345;-72
2022/03/16 07:58:06;;;;;;;36.60;20.10;;;;;;;7.18;40.11;99515.25;106051;1275;112579;-71
2022/03/16 08:00:34;;;;;;;29.80;17.30;;;;;;;7.18;40.39;99514.92;106171;1274;100266;-73
2022/03/16 08:03:04;;;;;;;34.00;18.10;;;;;;;7.22;40.17;99520.89;106159;1273;106367;-71
2022/03/16 08:05:33;;;;;;;34.10;19.30;;;;;;;7.20;40.34;99524.50;106197;1274;99218;-70
2022/03/16 08:08:02;;;;;;;37.20;19.60;;;;;;;7.19;40.30;99527.05;106152;1274;99208;-71
2022/03/16 08:10:29;;;;;;;34.90;19.20;;;;;;;7.23;40.28;99528.41;106155;1274;112570;-69
2022/03/16 08:12:59;;;;;;;34.80;18.60;;;;;;;7.28;40.12;99525.16;106198;1273;99295;-70
2022/03/16 08:15:26;;;;;;;34.80;19.20;;;;;;;7.32;40.29;99526.02;106135;1273;107412;-70
2022/03/16 08:17:54;;;;;;;34.70;19.30;;;;;;;7.38;40.04;99525.67;106209;1274;96744;-70
2022/03/16 08:20:22;;;;;;;35.70;18.60;;;;;;;7.43;40.28;99525.44;106182;1274;96613;-69
2022/03/16 08:22:54;;;;;;;37.10;18.70;;;;;;;7.47;40.56;99525.23;106171;1274;113535;-70
2022/03/16 08:25:42;;;;;;;31.30;17.40;;;;;;;7.52;40.44;99524.28;106180;1274;96548;-70
2022/03/16 08:28:11;;;;;;;32.60;18.70;;;;;;;7.55;40.32;99523.77;106143;1275;106211;-70
2022/03/16 08:30:41;;;;;;;33.60;16.70;;;;;;;7.59;40.82;99529.70;106149;1274;99202;-69
2022/03/16 08:33:09;;;;;;;33.50;18.30;;;;;;;7.56;40.69;99525.27;106228;1272;99198;-69
2022/03/16 08:35:37;;;;;;;33.90;17.80;;;;;;;7.56;40.83;99528.65;106205;1274;112443;-72
2022/03/16 08:38:05;;;;;;;33.00;17.00;;;;;;;7.59;40.70;99529.69;105943;1275;99243;-69
2022/03/16 08:40:32;;;;;;;32.00;17.90;;;;;;;7.62;40.83;99532.74;105989;1274;107498;-71
2022/03/16 08:43:02;;;;;;;35.20;18.10;;;;;;;7.64;40.92;99536.02;106023;1274;97865;-71
2022/03/16 08:45:39;;;;;;;33.40;18.10;;;;;;;7.68;41.02;99539.50;106120;1273;99241;-71
2022/03/16 08:48:08;;;;;;;31.20;17.60;;;;;;;7.73;40.90;99540.60;106188;1273;112800;-71
2022/03/16 08:50:36;;;;;;;32.90;17.50;;;;;;;7.79;41.07;99543.51;106119;1274;99346;-71
2022/03/16 08:53:05;;;;;;;30.70;17.10;;;;;;;7.84;40.96;99547.83;106158;1274;107715;-71
2022/03/16 08:55:33;;;;;;;30.20;17.30;;;;;;;7.89;40.91;99550.36;106194;1274;99329;-71
2022/03/16 08:58:01;;;;;;;29.50;16.90;;;;;;;7.94;41.19;99552.44;106185;1274;99210;-70
2022/03/16 09:00:29;;;;;;;32.50;17.80;;;;;;;7.94;41.15;99555.08;106137;1274;112730;-71
2022/03/16 09:02:58;;;;;;;31.40;17.30;;;;;;;7.95;41.39;99553.25;106075;1274;96538;-71
2022/03/16 09:05:27;;;;;;;33.40;17.40;;;;;;;7.95;41.36;99557.82;106055;1274;107869;-71
2022/03/16 09:07:56;;;;;;;32.40;17.30;;;;;;;7.99;41.25;99559.00;106098;1274;99229;-73
2022/03/16 09:10:25;;;;;;;32.80;18.40;;;;;;;8.05;41.26;99562.27;106114;1274;97249;-70
2022/03/16 09:12:53;;;;;;;35.00;18.60;;;;;;;8.09;41.21;99560.24;106037;1274;110942;-71
2022/03/16 09:15:21;;;;;;;32.20;17.90;;;;;;;8.14;41.29;99561.01;106107;1274;98003;-70
2022/03/16 09:17:49;;;;;;;31.70;17.10;;;;;;;8.21;41.35;99567.73;106133;1274;107723;-69
2022/03/16 09:20:18;;;;;;;33.00;18.10;;;;;;;8.22;41.43;99570.69;106073;1274;100726;-70
2022/03/16 09:22:46;;;;;;;34.00;18.10;;;;;;;8.19;41.37;99573.46;106091;1274;99354;-71
2022/03/16 09:25:13;;;;;;;32.40;17.00;;;;;;;8.21;41.39;99573.04;106097;1274;112798;-70
2022/03/16 09:27:42;;;;;;;32.40;18.10;;;;;;;8.25;41.34;99574.75;106153;1274;99208;-71
2022/03/16 09:30:10;;;;;;;32.20;16.50;;;;;;;8.27;41.29;99578.89;106055;1274;105876;-72
2022/03/16 09:32:39;;;;;;;30.20;17.30;;;;;;;8.29;41.52;99584.24;106095;1274;99150;-69
2022/03/16 09:35:09;;;;;;;32.50;17.50;;;;;;;8.31;41.55;99588.20;105963;1274;99341;-68
2022/03/16 09:37:38;;;;;;;29.20;16.50;;;;;;;8.34;41.39;99586.47;105996;1274;113936;-71
2022/03/16 09:40:08;;;;;;;31.20;16.90;;;;;;;8.41;41.53;99586.06;106097;1274;97990;-71
2022/03/16 09:42:38;;;;;;;29.80;18.30;;;;;;;8.50;41.51;99590.36;106090;1274;107755;-71
2022/03/16 09:45:12;;;;;;;33.80;18.50;;;;;;;8.59;41.50;99589.18;105992;1274;99320;-70
2022/03/16 09:47:40;;;;;;;;;;;;;;;8.68;41.72;99591.69;106047;1274;99297;-70
2022/03/16 09:50:09;;;;;;;32.30;17.40;;;;;;;8.73;41.73;99594.77;106020;1274;113605;-69
2022/03/16 09:52:39;;;;;;;32.10;18.70;;;;;;;8.79;41.55;99596.17;105976;1276;97645;-70
2022/03/16 09:55:08;;;;;;;33.80;19.50;;;;;;;8.85;41.61;99598.50;106071;1274;107620;-70
2022/03/16 09:57:36;;;;;;;33.00;19.20;;;;;;;8.93;41.55;99600.20;106001;1274;97710;-68
2022/03/16 10:00:07;;;;;;;37.70;18.70;;;;;;;8.97;41.66;99598.35;105944;1274;99235;-69
2022/03/16 10:02:35;;;;;;;36.90;20.50;;;;;;;9.02;41.63;99600.35;106007;1274;112717;-69
2022/03/16 10:05:07;;;;;;;34.40;19.40;;;;;;;9.12;41.74;99597.00;106019;1274;99423;-71
2022/03/16 10:07:38;;;;;;;34.60;19.00;;;;;;;9.21;41.76;99602.13;106134;1272;108048;-70
2022/03/16 10:13:14;;;;;;;39.10;21.00;;;;;;;9.38;41.86;99612.08;106038;1274;99182;-71
2022/03/16 10:15:43;;;;;;;40.30;21.60;;;;;;;9.45;41.79;99614.34;106115;1273;112287;-72
2022/03/16 10:18:25;;;;;;;40.40;21.10;;;;;;;9.52;41.86;99616.77;106244;1273;97164;-71
2022/03/16 10:20:57;;;;;;;38.70;19.80;;;;;;;9.63;41.83;99621.92;106074;1274;108300;-72
2022/03/16 10:23:30;;;;;;;36.80;20.40;;;;;;;9.74;41.76;99620.83;106035;1274;99278;-69
2022/03/16 10:26:03;;;;;;;34.40;19.30;;;;;;;9.83;41.84;99616.67;106292;1273;97907;-70
2022/03/16 10:28:47;;;;;;;35.00;19.60;;;;;;;9.91;41.74;99622.41;106024;1275;113290;-69
2022/03/16 10:31:18;;;;;;;35.20;18.30;;;;;;;10.00;41.74;99624.38;107202;1272;99788;-71
2022/03/16 10:33:53;;;;;;;32.60;18.40;;;;;;;10.04;41.57;99623.00;106087;1273;107712;-71
2022/03/16 10:36:25;;;;;;;30.80;18.60;;;;;;;10.04;41.47;99622.16;106074;1274;99247;-73
2022/03/16 10:39:03;;;;;;;38.70;18.70;;;;;;;10.05;41.56;99619.11;106105;1274;99205;-71
2022/03/16 10:47:22;;;;;;;37.10;19.20;;;;;;;10.26;41.61;99624.31;106089;1274;107763;-72
2022/03/16 10:50:07;;;;;;;39.00;20.10;;;;;;;10.34;41.66;99627.25;106827;1273;99304;-72
2022/03/16 10:52:37;;;;;;;36.80;20.00;;;;;;;10.43;41.67;99631.27;107616;1273;97359;-71
2022/03/16 10:55:05;;;;;;;35.20;19.00;;;;;;;10.50;41.48;99633.20;107891;1273;112721;-72
2022/03/16 10:57:38;;;;;;;31.10;18.20;;;;;;;10.56;41.57;99635.44;106809;1274;99070;-71
2022/03/16 11:00:10;;;;;;;34.80;18.80;;;;;;;10.62;41.52;99634.19;107613;1273;107640;-71
2022/03/16 11:02:43;;;;;;;37.10;19.70;;;;;;;10.71;41.51;99633.05;106127;1273;99221;-72
2022/03/16 11:05:18;;;;;;;39.80;21.40;;;;;;;10.83;41.52;99634.28;106060;1274;99236;-71
2022/03/16 11:07:48;;;;;;;;;;;;;;;10.94;41.44;99636.27;106113;1274;112919;-69
2022/03/16 11:10:17;;;;;;;35.50;18.60;;;;;;;10.99;41.52;99637.98;106078;1274;99065;-71
2022/03/16 11:15:33;;;;;;;34.60;18.60;;;;;;;11.21;41.54;99638.20;106042;1274;99905;-71
2022/03/16 11:18:04;;;;;;;38.60;21.00;;;;;;;11.28;41.40;99641.13;106105;1274;99940;-70
2022/03/16 11:20:34;;;;;;;46.20;25.10;;;;;;;11.32;41.40;99641.55;106101;1274;112710;-71
2022/03/16 11:26:00;;;;;;;35.10;20.20;;;;;;;11.48;41.35;99643.52;105952;1274;107111;-70
2022/03/16 11:28:39;;;;;;;36.10;20.80;;;;;;;11.47;41.29;99647.46;106067;1274;99296;-71
2022/03/16 11:31:12;;;;;;;33.30;19.80;;;;;;;11.55;41.33;99649.83;105989;1274;99196;-71
2022/03/16 11:33:55;;;;;;;35.80;19.80;;;;;;;11.65;41.44;99653.17;106025;1274;112608;-71
2022/03/16 11:36:30;;;;;;;;;;;;;;;11.74;41.33;99654.72;106040;1274;97601;-69
2022/03/16 11:39:03;;;;;;;35.30;20.50;;;;;;;11.78;41.54;99658.90;106040;1274;107724;-70